createdAt,value
2018-08-04T00:02:09.768Z,24.45
2018-08-04T00:04:38.626Z,24.43
2018-08-04T00:07:07.529Z,24.55
2018-08-04T00:09:36.371Z,24.54
2018-08-04T00:12:05.335Z,24.42
2018-08-04T00:14:34.236Z,24.44
2018-08-04T00:17:03.131Z,24.40
2018-08-04T00:19:31.971Z,24.17
2018-08-04T00:22:00.832Z,24.13
2018-08-04T00:24:29.583Z,24.28
2018-08-04T00:26:58.430Z,24.33
2018-08-04T00:29:27.312Z,24.40
2018-08-04T00:31:56.152Z,24.37
2018-08-04T00:34:25.006Z,24.29
2018-08-04T00:36:53.867Z,24.28
2018-08-04T00:39:22.642Z,24.37
2018-08-04T00:41:51.414Z,24.41
2018-08-04T00:44:20.382Z,24.34
2018-08-04T00:46:49.231Z,24.29
2018-08-04T00:49:18.072Z,24.44
2018-08-04T00:51:46.970Z,24.52
2018-08-04T00:54:15.777Z,24.49
2018-08-04T00:56:44.538Z,24.43
2018-08-04T00:59:13.411Z,24.51
2018-08-04T01:01:42.241Z,24.48
2018-08-04T01:04:11.087Z,24.44
2018-08-04T01:06:39.983Z,24.41
2018-08-04T01:09:10.168Z,24.50
2018-08-04T01:11:39.042Z,24.63
2018-08-04T01:14:08.065Z,24.51
2018-08-04T01:16:36.930Z,24.55
2018-08-04T01:19:05.798Z,24.39
2018-08-04T01:21:34.654Z,24.33
2018-08-04T01:24:03.451Z,24.35
2018-08-04T01:26:32.262Z,24.30
2018-08-04T01:29:01.110Z,24.49
2018-08-04T01:31:29.995Z,24.54
2018-08-04T01:33:58.874Z,24.71
2018-08-04T01:36:27.746Z,24.70
2018-08-04T01:38:56.606Z,24.55
2018-08-04T01:41:25.430Z,24.45
2018-08-04T01:43:54.391Z,24.36
2018-08-04T01:46:23.230Z,24.33
2018-08-04T01:48:52.036Z,24.33
2018-08-04T01:51:20.917Z,24.34
2018-08-04T01:53:49.742Z,24.25
2018-08-04T01:56:18.664Z,24.13
2018-08-04T01:58:47.526Z,24.17
2018-08-04T02:01:16.350Z,24.17
2018-08-04T02:03:45.103Z,24.23
2018-08-04T02:06:13.977Z,24.06
2018-08-04T02:08:42.831Z,24.17
2018-08-04T02:11:11.645Z,24.01
2018-08-04T02:13:40.450Z,24.07
2018-08-04T02:16:09.263Z,24.03
2018-08-04T02:18:38.060Z,23.83
2018-08-04T02:21:06.982Z,23.86
2018-08-04T02:23:35.766Z,24.02
2018-08-04T02:26:04.605Z,23.99
2018-08-04T02:28:33.535Z,23.90
2018-08-04T02:31:02.423Z,23.97
2018-08-04T02:33:31.264Z,24.07
2018-08-04T02:36:00.046Z,23.56
2018-08-04T02:38:28.814Z,23.49
2018-08-04T02:40:57.584Z,23.17
2018-08-04T02:43:26.425Z,22.95
2018-08-04T02:45:55.283Z,22.75
2018-08-04T02:48:24.122Z,22.66
2018-08-04T02:50:52.981Z,22.59
2018-08-04T02:53:21.770Z,22.73
2018-08-04T02:55:50.583Z,22.54
2018-08-04T02:58:19.516Z,22.32
2018-08-04T03:00:48.369Z,22.29
2018-08-04T03:03:17.144Z,22.20
2018-08-04T03:05:45.973Z,22.17
2018-08-04T03:08:14.754Z,22.16
2018-08-04T03:10:43.525Z,22.08
2018-08-04T03:13:12.347Z,21.87
2018-08-04T03:15:41.174Z,21.94
2018-08-04T03:18:10.048Z,22.01
2018-08-04T03:20:38.882Z,22.18
2018-08-04T03:23:07.804Z,22.36
2018-08-04T03:25:36.597Z,22.57
2018-08-04T03:28:05.442Z,22.81
2018-08-04T03:30:34.344Z,22.92
2018-08-04T03:33:03.217Z,22.97
2018-08-04T03:35:32.137Z,23.06
2018-08-04T03:38:01.020Z,23.14
2018-08-04T03:40:29.787Z,23.41
2018-08-04T03:42:58.643Z,23.28
2018-08-04T03:45:27.492Z,23.34
2018-08-04T03:47:56.393Z,23.29
2018-08-04T03:50:25.278Z,23.30
2018-08-04T03:52:54.081Z,23.47
2018-08-04T03:55:22.920Z,23.37
2018-08-04T03:57:51.762Z,23.61
2018-08-04T04:00:20.633Z,23.24
2018-08-04T04:02:49.383Z,22.95
2018-08-04T04:05:18.204Z,22.74
2018-08-04T04:07:46.993Z,22.86
2018-08-04T04:10:16.132Z,23.04
2018-08-04T04:12:45.020Z,23.17
2018-08-04T04:15:13.915Z,23.36
2018-08-04T04:17:49.823Z,23.35
2018-08-04T04:20:20.688Z,23.25
2018-08-04T04:22:49.908Z,23.07
2018-08-04T04:25:18.778Z,23.15
2018-08-04T04:27:47.630Z,23.16
2018-08-04T04:30:16.498Z,22.94
2018-08-04T04:32:45.393Z,22.97
2018-08-04T04:35:14.220Z,23.13
2018-08-04T04:37:43.047Z,23.35
2018-08-04T04:40:11.979Z,23.58
2018-08-04T04:42:40.817Z,23.67
2018-08-04T04:45:09.686Z,23.72
2018-08-04T04:47:38.644Z,23.86
2018-08-04T04:50:07.495Z,23.79
2018-08-04T04:52:36.396Z,23.82
2018-08-04T04:55:05.587Z,23.76
2018-08-04T04:57:34.456Z,23.87
2018-08-04T05:00:03.399Z,24.05
2018-08-04T05:02:32.228Z,24.25
2018-08-04T05:05:01.661Z,24.22
2018-08-04T05:07:30.504Z,24.41
2018-08-04T05:09:59.409Z,24.44
2018-08-04T05:12:28.223Z,24.41
2018-08-04T05:14:57.085Z,24.78
2018-08-04T05:17:26.126Z,24.53
2018-08-04T05:19:55.042Z,24.73
2018-08-04T05:22:24.000Z,24.50
2018-08-04T05:24:53.066Z,24.55
2018-08-04T05:27:21.913Z,24.56
2018-08-04T05:29:50.781Z,24.89
2018-08-04T05:32:19.796Z,25.24
2018-08-04T05:34:48.690Z,25.07
2018-08-04T05:37:17.697Z,24.97
2018-08-04T05:39:46.602Z,24.78
2018-08-04T05:42:15.481Z,24.65
2018-08-04T05:44:44.394Z,24.89
2018-08-04T05:47:14.421Z,24.84
2018-08-04T05:49:43.513Z,24.82
2018-08-04T05:52:12.418Z,24.81
2018-08-04T05:54:41.296Z,24.94
2018-08-04T05:57:10.220Z,25.19
2018-08-04T05:59:39.074Z,25.55
2018-08-04T06:02:08.221Z,25.32
2018-08-04T06:04:37.097Z,25.24
2018-08-04T06:07:06.107Z,25.13
2018-08-04T06:09:35.051Z,25.12
2018-08-04T06:12:04.078Z,25.31
2018-08-04T06:14:33.044Z,25.48
2018-08-04T06:17:02.071Z,25.44
2018-08-04T06:19:30.984Z,25.45
2018-08-04T06:21:59.920Z,25.60
2018-08-04T06:24:28.867Z,25.34
2018-08-04T06:26:57.708Z,25.48
2018-08-04T06:29:26.689Z,25.69
2018-08-04T06:31:55.628Z,25.52
2018-08-04T06:34:24.555Z,25.59
2018-08-04T06:36:54.038Z,25.94
2018-08-04T06:39:22.983Z,26.06
2018-08-04T06:41:51.929Z,26.18
2018-08-04T06:44:20.851Z,26.01
2018-08-04T06:46:50.040Z,26.42
2018-08-04T06:49:18.985Z,26.71
2018-08-04T06:51:47.944Z,27.18
2018-08-04T06:54:16.983Z,27.14
2018-08-04T06:56:45.980Z,27.07
2018-08-04T06:59:14.919Z,26.98
2018-08-04T07:01:43.886Z,27.15
2018-08-04T07:04:12.901Z,27.17
2018-08-04T07:06:41.819Z,27.39
2018-08-04T07:09:11.131Z,27.25
2018-08-04T07:11:40.974Z,28.05
2018-08-04T07:14:09.895Z,27.63
2018-08-04T07:16:39.150Z,27.84
2018-08-04T07:19:08.170Z,27.73
2018-08-04T07:21:37.185Z,27.65
2018-08-04T07:24:07.058Z,27.84
2018-08-04T07:26:36.078Z,28.38
2018-08-04T07:29:05.128Z,27.94
2018-08-04T07:31:34.162Z,28.67
2018-08-04T07:34:03.092Z,28.93
2018-08-04T07:36:32.122Z,29.22
2018-08-04T07:39:01.130Z,29.43
2018-08-04T07:41:30.112Z,29.47
2018-08-04T07:43:59.078Z,29.63
2018-08-04T07:46:28.056Z,30.06
2018-08-04T07:48:57.033Z,30.00
2018-08-04T07:51:25.936Z,29.89
2018-08-04T07:53:54.815Z,30.27
2018-08-04T07:56:23.705Z,30.03
2018-08-04T07:58:52.659Z,29.61
2018-08-04T08:01:21.604Z,29.93
2018-08-04T08:03:50.575Z,30.19
2018-08-04T08:06:19.626Z,30.43
2018-08-04T08:08:48.634Z,30.13
2018-08-04T08:11:17.694Z,30.07
2018-08-04T08:13:46.675Z,30.25
2018-08-04T08:16:15.800Z,30.97
2018-08-04T08:18:45.366Z,31.27
2018-08-04T08:21:14.346Z,31.31
2018-08-04T08:23:43.477Z,30.46
2018-08-04T08:26:14.565Z,30.06
2018-08-04T08:28:43.810Z,30.44
2018-08-04T08:31:12.826Z,30.75
2018-08-04T08:33:41.871Z,30.96
2018-08-04T08:36:11.040Z,30.59
2018-08-04T08:38:40.096Z,30.80
2018-08-04T08:41:09.968Z,30.63
2018-08-04T08:43:38.986Z,30.80
2018-08-04T08:46:08.017Z,30.93
2018-08-04T08:48:36.880Z,30.92
2018-08-04T08:51:06.026Z,31.04
2018-08-04T08:53:35.065Z,31.24
2018-08-04T08:56:03.870Z,31.53
2018-08-04T08:58:32.892Z,31.43
2018-08-04T09:01:01.861Z,31.45
2018-08-04T09:03:30.902Z,31.55
2018-08-04T09:05:59.790Z,31.54
2018-08-04T09:08:28.790Z,31.88
2018-08-04T09:10:57.894Z,31.49
2018-08-04T09:13:26.856Z,32.03
2018-08-04T09:15:55.827Z,31.90
2018-08-04T09:18:24.806Z,32.24
2018-08-04T09:20:54.871Z,31.62
2018-08-04T09:23:24.151Z,31.47
2018-08-04T09:25:53.091Z,32.02
2018-08-04T09:28:22.000Z,32.30
2018-08-04T09:30:51.162Z,32.29
2018-08-04T09:33:20.169Z,32.26
2018-08-04T09:35:49.208Z,31.98
2018-08-04T09:38:18.271Z,32.28
2018-08-04T09:40:47.194Z,32.40
2018-08-04T09:43:16.172Z,32.13
2018-08-04T09:45:45.642Z,31.55
2018-08-04T09:48:14.698Z,32.02
2018-08-04T09:50:43.635Z,32.74
2018-08-04T09:53:12.634Z,32.66
2018-08-04T09:55:41.641Z,32.29
2018-08-04T09:58:10.649Z,31.98
2018-08-04T10:00:44.661Z,31.96
2018-08-04T10:03:13.670Z,32.24
2018-08-04T10:05:42.692Z,32.76
2018-08-04T10:08:12.584Z,32.76
2018-08-04T10:10:41.526Z,32.69
2018-08-04T10:13:10.432Z,32.54
2018-08-04T10:15:39.485Z,32.56
2018-08-04T10:18:08.441Z,32.20
2018-08-04T10:20:37.346Z,32.47
2018-08-04T10:23:06.484Z,33.02
2018-08-04T10:25:35.627Z,32.96
2018-08-04T10:28:04.642Z,33.70
2018-08-04T10:30:33.536Z,33.81
2018-08-04T10:33:02.401Z,33.35
2018-08-04T10:35:31.925Z,33.15
2018-08-04T10:38:00.811Z,33.21
2018-08-04T10:40:29.783Z,33.18
2018-08-04T10:42:58.648Z,33.58
2018-08-04T10:45:27.645Z,32.87
2018-08-04T10:47:56.909Z,32.91
2018-08-04T10:50:25.934Z,33.32
2018-08-04T10:52:54.956Z,33.07
2018-08-04T10:55:23.790Z,33.28
2018-08-04T10:57:52.640Z,32.87
2018-08-04T11:00:21.551Z,32.97
2018-08-04T11:02:50.439Z,33.09
2018-08-04T11:05:19.232Z,32.68
2018-08-04T11:07:48.116Z,32.81
2018-08-04T11:10:16.906Z,33.28
2018-08-04T11:12:45.681Z,33.58
2018-08-04T11:15:14.488Z,33.24
2018-08-04T11:17:43.355Z,33.40
2018-08-04T11:20:12.300Z,33.72
2018-08-04T11:22:41.103Z,34.02
2018-08-04T11:25:09.893Z,33.56
2018-08-04T11:27:38.733Z,34.27
2018-08-04T11:30:08.508Z,34.72
2018-08-04T11:32:37.476Z,34.68
2018-08-04T11:35:06.523Z,33.72
2018-08-04T11:37:35.400Z,34.40
2018-08-04T11:40:04.399Z,34.22
2018-08-04T11:42:33.218Z,34.06
2018-08-04T11:45:02.078Z,34.97
2018-08-04T11:47:30.960Z,35.22
2018-08-04T11:49:59.766Z,35.76
2018-08-04T11:52:28.575Z,34.87
2018-08-04T11:54:57.394Z,35.21
2018-08-04T11:57:26.139Z,34.90
2018-08-04T11:59:54.936Z,34.56
2018-08-04T12:02:23.737Z,34.73
2018-08-04T12:04:52.553Z,34.53
2018-08-04T12:07:21.355Z,35.72
2018-08-04T12:09:50.161Z,34.52
2018-08-04T12:12:18.954Z,34.22
2018-08-04T12:14:47.792Z,34.34
2018-08-04T12:17:16.576Z,33.85
2018-08-04T12:19:45.332Z,33.98
2018-08-04T12:22:14.187Z,34.26
2018-08-04T12:24:42.929Z,34.78
2018-08-04T12:27:11.698Z,34.61
2018-08-04T12:29:40.556Z,35.16
2018-08-04T12:32:09.357Z,36.02
2018-08-04T12:34:38.115Z,35.84
2018-08-04T12:37:07.091Z,36.31
2018-08-04T12:39:35.877Z,36.40
2018-08-04T12:42:04.795Z,36.53
2018-08-04T12:44:33.619Z,36.47
2018-08-04T12:47:02.411Z,35.92
2018-08-04T12:49:31.193Z,35.83
2018-08-04T12:52:00.045Z,35.86
2018-08-04T12:54:28.836Z,35.53
2018-08-04T12:56:57.634Z,35.52
2018-08-04T12:59:26.444Z,35.80
2018-08-04T13:01:55.252Z,35.79
2018-08-04T13:04:24.026Z,35.58
2018-08-04T13:06:52.945Z,35.58
2018-08-04T13:09:21.768Z,35.44
2018-08-04T13:11:50.599Z,35.02
2018-08-04T13:14:19.389Z,35.25
2018-08-04T13:16:48.291Z,35.08
2018-08-04T13:19:17.086Z,35.36
2018-08-04T13:21:45.935Z,35.78
2018-08-04T13:24:14.764Z,36.19
2018-08-04T13:26:43.549Z,36.21
2018-08-04T13:29:12.319Z,36.54
2018-08-04T13:31:41.091Z,36.64
2018-08-04T13:34:09.931Z,36.94
2018-08-04T13:36:38.732Z,36.58
2018-08-04T13:39:09.154Z,36.09
2018-08-04T13:41:38.433Z,35.85
2018-08-04T13:44:07.435Z,35.53
2018-08-04T13:46:36.324Z,35.45
2018-08-04T13:49:05.191Z,35.69
2018-08-04T13:51:33.977Z,36.51
2018-08-04T13:54:02.783Z,35.76
2018-08-04T13:56:31.670Z,34.58
2018-08-04T13:59:00.525Z,33.89
2018-08-04T14:01:29.401Z,33.71
2018-08-04T14:03:58.305Z,33.47
2018-08-04T14:06:27.193Z,33.40
2018-08-04T14:08:56.010Z,33.25
2018-08-04T14:11:24.891Z,33.18
2018-08-04T14:13:53.777Z,33.11
2018-08-04T14:16:22.622Z,33.38
2018-08-04T14:18:51.492Z,33.23
2018-08-04T14:21:20.384Z,33.19
2018-08-04T14:23:49.293Z,33.50
2018-08-04T14:26:18.125Z,33.57
2018-08-04T14:28:47.077Z,33.66
2018-08-04T14:31:15.858Z,33.48
2018-08-04T14:33:44.680Z,33.48
2018-08-04T14:36:13.584Z,33.44
2018-08-04T14:38:42.366Z,33.45
2018-08-04T14:41:11.199Z,33.05
2018-08-04T14:43:40.009Z,33.09
2018-08-04T14:46:09.269Z,33.12
2018-08-04T14:48:38.114Z,33.37
2018-08-04T14:51:06.890Z,33.68
2018-08-04T14:53:35.731Z,34.24
2018-08-04T14:56:04.632Z,34.11
2018-08-04T14:58:33.463Z,33.60
2018-08-04T15:01:02.282Z,33.82
2018-08-04T15:03:31.070Z,33.43
2018-08-04T15:05:59.854Z,34.25
2018-08-04T15:08:28.697Z,34.13
2018-08-04T15:10:57.510Z,33.99
2018-08-04T15:13:26.384Z,33.91
2018-08-04T15:15:55.199Z,34.04
2018-08-04T15:18:24.833Z,34.38
2018-08-04T15:20:53.650Z,34.12
2018-08-04T15:23:22.435Z,34.16
2018-08-04T15:25:51.245Z,33.70
2018-08-04T15:28:20.091Z,33.70
2018-08-04T15:30:49.508Z,33.67
2018-08-04T15:33:18.437Z,33.62
2018-08-04T15:35:47.233Z,33.51
2018-08-04T15:38:16.085Z,33.75
2018-08-04T15:40:44.953Z,33.72
2018-08-04T15:43:13.836Z,33.47
2018-08-04T15:45:42.605Z,33.49
2018-08-04T15:48:11.493Z,33.54
2018-08-04T15:50:40.434Z,33.52
2018-08-04T15:53:09.308Z,33.03
2018-08-04T15:55:39.119Z,33.32
2018-08-04T15:58:08.021Z,33.27
2018-08-04T16:00:36.893Z,33.32
2018-08-04T16:03:05.933Z,33.39
2018-08-04T16:05:34.822Z,33.31
2018-08-04T16:08:03.764Z,33.37
2018-08-04T16:10:32.662Z,33.51
2018-08-04T16:13:01.466Z,33.40
2018-08-04T16:15:30.329Z,33.40
2018-08-04T16:17:59.378Z,33.43
2018-08-04T16:20:28.236Z,33.24
2018-08-04T16:22:57.063Z,33.08
2018-08-04T16:25:26.010Z,33.25
2018-08-04T16:27:54.840Z,33.00
2018-08-04T16:30:23.671Z,32.56
2018-08-04T16:32:52.538Z,32.11
2018-08-04T16:35:21.421Z,31.76
2018-08-04T16:37:50.273Z,31.73
2018-08-04T16:40:19.168Z,31.29
2018-08-04T16:42:48.032Z,31.08
2018-08-04T16:45:16.878Z,31.02
2018-08-04T16:47:45.717Z,30.89
2018-08-04T16:50:14.560Z,30.83
2018-08-04T16:52:43.393Z,30.76
2018-08-04T16:55:12.308Z,30.86
2018-08-04T16:57:41.083Z,31.06
2018-08-04T17:00:09.947Z,31.07
2018-08-04T17:02:38.880Z,31.11
2018-08-04T17:05:07.729Z,31.14
2018-08-04T17:07:36.557Z,31.23
2018-08-04T17:10:05.725Z,31.38
2018-08-04T17:12:34.546Z,31.52
2018-08-04T17:15:03.602Z,31.56
2018-08-04T17:17:32.516Z,31.34
2018-08-04T17:20:01.333Z,31.45
2018-08-04T17:22:30.178Z,31.37
2018-08-04T17:24:59.076Z,31.19
2018-08-04T17:27:27.863Z,31.18
2018-08-04T17:29:56.682Z,30.97
2018-08-04T17:32:25.559Z,30.87
2018-08-04T17:34:54.348Z,30.78
2018-08-04T17:37:23.437Z,30.86
2018-08-04T17:39:52.344Z,30.77
2018-08-04T17:42:21.188Z,30.23
2018-08-04T17:44:50.097Z,30.21
2018-08-04T17:47:19.086Z,30.09
2018-08-04T17:49:47.941Z,30.32
2018-08-04T17:52:16.823Z,30.23
2018-08-04T17:54:45.742Z,29.76
2018-08-04T17:57:14.680Z,29.76
2018-08-04T17:59:43.487Z,29.40
2018-08-04T18:02:12.399Z,29.12
2018-08-04T18:04:41.276Z,29.32
2018-08-04T18:07:10.138Z,29.09
2018-08-04T18:09:39.000Z,29.26
2018-08-04T18:12:07.868Z,29.10
2018-08-04T18:14:36.681Z,29.01
2018-08-04T18:17:05.716Z,29.17
2018-08-04T18:19:34.500Z,29.12
2018-08-04T18:22:03.333Z,29.06
2018-08-04T18:24:32.154Z,29.13
2018-08-04T18:27:00.976Z,29.09
2018-08-04T18:29:30.333Z,29.14
2018-08-04T18:31:59.411Z,29.11
2018-08-04T18:34:28.238Z,29.20
2018-08-04T18:36:57.093Z,29.08
2018-08-04T18:39:25.898Z,29.06
2018-08-04T18:41:54.846Z,28.88
2018-08-04T18:44:23.708Z,28.87
2018-08-04T18:46:52.538Z,28.94
2018-08-04T18:49:21.375Z,29.16
2018-08-04T18:51:50.210Z,29.10
2018-08-04T18:54:19.092Z,29.16
2018-08-04T18:56:47.980Z,29.25
2018-08-04T18:59:16.770Z,29.15
2018-08-04T19:01:45.583Z,29.33
2018-08-04T19:04:14.361Z,29.35
2018-08-04T19:06:43.248Z,29.33
2018-08-04T19:09:12.743Z,29.47
2018-08-04T19:11:41.586Z,29.47
2018-08-04T19:14:11.123Z,29.36
2018-08-04T19:16:39.959Z,29.34
2018-08-04T19:19:08.851Z,29.59
2018-08-04T19:21:37.763Z,29.50
2018-08-04T19:24:07.284Z,29.42
2018-08-04T19:26:36.162Z,29.53
2018-08-04T19:29:05.094Z,29.56
2018-08-04T19:31:34.006Z,29.70
2018-08-04T19:34:02.806Z,29.67
2018-08-04T19:36:31.695Z,29.73
2018-08-04T19:39:00.510Z,29.63
2018-08-04T19:41:29.339Z,29.81
2018-08-04T19:43:58.259Z,29.93
2018-08-04T19:46:27.101Z,29.75
2018-08-04T19:48:55.994Z,29.70
2018-08-04T19:51:24.790Z,29.73
2018-08-04T19:53:53.682Z,30.59
2018-08-04T19:56:22.585Z,30.07
2018-08-04T19:58:51.442Z,29.81
2018-08-04T20:01:20.347Z,30.58
2018-08-04T20:03:49.251Z,29.96
2018-08-04T20:06:18.194Z,29.87
2018-08-04T20:08:47.008Z,29.54
2018-08-04T20:11:15.868Z,29.42
2018-08-04T20:13:44.636Z,29.32
2018-08-04T20:16:13.551Z,29.44
2018-08-04T20:18:42.428Z,29.40
2018-08-04T20:21:11.362Z,29.32
2018-08-04T20:23:40.288Z,29.28
2018-08-04T20:26:09.127Z,29.19
2018-08-04T20:28:37.924Z,29.37
2018-08-04T20:31:06.814Z,29.86
2018-08-04T20:33:35.757Z,29.65
2018-08-04T20:36:04.642Z,29.37
2018-08-04T20:38:33.570Z,29.50
2018-08-04T20:41:02.771Z,29.61
2018-08-04T20:43:31.628Z,29.40
2018-08-04T20:46:00.481Z,29.40
2018-08-04T20:48:29.340Z,29.43
2018-08-04T20:50:58.221Z,29.54
2018-08-04T20:53:27.266Z,29.39
2018-08-04T20:55:56.095Z,29.62
2018-08-04T20:58:24.986Z,29.32
2018-08-04T21:01:04.753Z,29.19
2018-08-04T21:03:33.584Z,29.09
2018-08-04T21:06:02.516Z,28.80
2018-08-04T21:08:31.404Z,28.55
2018-08-04T21:11:01.180Z,28.17
2018-08-04T21:13:30.043Z,28.40
2018-08-04T21:15:58.861Z,28.28
2018-08-04T21:18:27.710Z,28.08
2018-08-04T21:20:56.671Z,28.11
2018-08-04T21:23:25.408Z,27.83
2018-08-04T21:25:54.208Z,27.79
2018-08-04T21:28:23.011Z,27.93
2018-08-04T21:30:51.838Z,27.51
2018-08-04T21:33:20.642Z,27.35
2018-08-04T21:35:49.539Z,27.28
2018-08-04T21:38:18.284Z,27.28
2018-08-04T21:40:47.093Z,27.36
2018-08-04T21:43:15.918Z,27.48
2018-08-04T21:45:44.911Z,27.33
2018-08-04T21:48:13.739Z,27.23
2018-08-04T21:50:42.560Z,27.30
2018-08-04T21:53:11.434Z,27.30
2018-08-04T21:55:40.330Z,27.20
2018-08-04T21:58:09.196Z,27.17
2018-08-04T22:00:42.156Z,26.98
2018-08-04T22:03:11.003Z,26.91
2018-08-04T22:05:39.826Z,26.99
2018-08-04T22:08:19.635Z,27.09
2018-08-04T22:10:48.407Z,27.17
2018-08-04T22:13:17.267Z,26.92
2018-08-04T22:15:46.106Z,26.96
2018-08-04T22:18:14.857Z,26.85
2018-08-04T22:20:43.640Z,26.88
2018-08-04T22:23:12.589Z,26.71
2018-08-04T22:25:41.356Z,26.70
2018-08-04T22:28:10.261Z,26.49
2018-08-04T22:30:39.034Z,26.53
2018-08-04T22:33:07.771Z,26.39
2018-08-04T22:35:36.579Z,26.26
2018-08-04T22:38:05.564Z,26.11
2018-08-04T22:40:34.464Z,26.22
2018-08-04T22:43:03.268Z,26.03
2018-08-04T22:46:20.018Z,26.00
2018-08-04T22:48:50.215Z,25.97
2018-08-04T22:51:28.576Z,26.00
2018-08-04T22:53:57.584Z,26.02
2018-08-04T22:56:26.809Z,26.08
2018-08-04T22:58:55.636Z,26.22
2018-08-04T23:01:24.481Z,26.21
2018-08-04T23:03:53.439Z,26.12
2018-08-04T23:06:22.299Z,26.22
2018-08-04T23:08:51.129Z,26.16
2018-08-04T23:11:19.969Z,26.22
2018-08-04T23:13:49.103Z,26.11
2018-08-04T23:16:17.830Z,26.01
2018-08-04T23:18:46.681Z,25.57
2018-08-04T23:21:15.565Z,25.25
2018-08-04T23:23:44.326Z,25.50
2018-08-04T23:26:13.201Z,25.55
2018-08-04T23:28:42.034Z,25.59
2018-08-04T23:31:10.943Z,25.11
2018-08-04T23:33:39.688Z,25.40
2018-08-04T23:36:08.568Z,25.60
2018-08-04T23:38:37.353Z,25.43
2018-08-04T23:41:06.148Z,25.27
2018-08-04T23:43:34.944Z,25.42
2018-08-04T23:46:03.878Z,25.42
2018-08-04T23:48:32.675Z,25.51
2018-08-04T23:51:01.581Z,25.44
2018-08-04T23:53:30.372Z,25.36
2018-08-04T23:55:59.217Z,25.31
2018-08-04T23:58:28.083Z,25.35
